Time;durP1;ratioP1;P1;durP2;ratioP2;P2;SDS_P1;SDS_P2;PMS_P1;PMS_P2;Temp;Humidity;BMP_temperature;BMP_pressure;BME280_temperature;BME280_humidity;BME280_pressure;Samples;Min_cycle;Max_cycle;Signal;HPM_P1;HPM_P2
2022/02/16 00:00:31;;;;;;;5.40;3.80;;;;;;;;;;5023076;28;20049;-68
2022/02/16 00:02:58;;;;;;;7.38;4.00;;;;;;;;;;5012543;28;20060;-68
2022/02/16 00:05:24;;;;;;;5.70;3.63;;;;;;;;;;5016239;28;20440;-68
2022/02/16 00:07:51;;;;;;;5.72;3.70;;;;;;;;;;5014726;28;20129;-68
2022/02/16 00:10:18;;;;;;;4.63;3.90;;;;;;;;;;5022705;28;20053;-68
2022/02/16 00:12:46;;;;;;;6.53;4.15;;;;;;;;;;5022506;28;20060;-68
2022/02/16 00:15:16;;;;;;;5.43;3.97;;;;;;;;;;5015195;28;20053;-68
2022/02/16 00:17:43;;;;;;;5.57;4.25;;;;;;;;;;5017979;28;20053;-68
2022/02/16 00:20:10;;;;;;;4.72;4.07;;;;;;;;;;5009865;28;20053;-68
2022/02/16 00:22:36;;;;;;;5.05;4.20;;;;;;;;;;5022590;28;20057;-68
2022/02/16 00:25:02;;;;;;;7.20;4.32;;;;;;;;;;5013992;28;20045;-67
2022/02/16 00:27:29;;;;;;;5.85;4.63;;;;;;;;;;5021920;28;20053;-68
2022/02/16 00:29:57;;;;;;;6.07;4.90;;;;;;;;;;5022260;28;20085;-68
2022/02/16 00:32:24;;;;;;;6.93;5.00;;;;;;;;;;5009752;28;20348;-68
2022/02/16 00:34:50;;;;;;;6.32;5.10;;;;;;;;;;5016325;28;20053;-67
2022/02/16 00:37:17;;;;;;;6.68;5.38;;;;;;;;;;5014871;28;20049;-67
2022/02/16 00:39:43;;;;;;;7.47;5.43;;;;;;;;;;5022498;28;20064;-68
2022/02/16 00:42:09;;;;;;;7.80;6.35;;;;;;;;;;5020228;28;20757;-67
2022/02/16 00:44:36;;;;;;;7.30;5.72;;;;;;;;;;5018768;28;20053;-68
2022/02/16 00:47:02;;;;;;;7.07;5.93;;;;;;;;;;5015902;28;20294;-68
2022/02/16 00:49:28;;;;;;;8.55;5.82;;;;;;;;;;5010130;28;20422;-68
2022/02/16 00:51:55;;;;;;;10.75;7.10;;;;;;;;;;5021527;28;20060;-68
2022/02/16 00:54:21;;;;;;;10.85;6.13;;;;;;;;;;5011525;28;20475;-67
2022/02/16 00:56:47;;;;;;;10.80;7.10;;;;;;;;;;5021385;28;20573;-68
2022/02/16 00:59:13;;;;;;;9.38;6.78;;;;;;;;;;5018292;28;20435;-68
2022/02/16 01:01:40;;;;;;;13.73;7.32;;;;;;;;;;5006161;28;20502;-68
2022/02/16 01:04:06;;;;;;;11.20;7.47;;;;;;;;;;5020879;28;20390;-68
2022/02/16 01:06:32;;;;;;;8.75;6.63;;;;;;;;;;5013624;28;20438;-68
2022/02/16 01:08:59;;;;;;;11.27;7.35;;;;;;;;;;5021266;28;20283;-68
2022/02/16 01:11:25;;;;;;;11.30;6.65;;;;;;;;;;5016073;28;20060;-68
2022/02/16 01:13:52;;;;;;;12.85;6.97;;;;;;;;;;5017131;28;20049;-68
2022/02/16 01:16:18;;;;;;;12.98;6.55;;;;;;;;;;5017209;28;20049;-68
2022/02/16 01:18:44;;;;;;;11.50;7.70;;;;;;;;;;5013885;28;20045;-68
2022/02/16 01:21:11;;;;;;;10.63;7.07;;;;;;;;;;5021694;28;20053;-68
2022/02/16 01:23:37;;;;;;;11.18;6.57;;;;;;;;;;5014890;28;20053;-68
2022/02/16 01:26:03;;;;;;;8.43;6.30;;;;;;;;;;5020694;28;20354;-68
2022/02/16 01:28:30;;;;;;;8.95;6.13;;;;;;;;;;5008748;28;20549;-68
2022/02/16 01:30:57;;;;;;;11.43;6.07;;;;;;;;;;5015449;28;20050;-68
2022/02/16 01:33:24;;;;;;;10.77;5.95;;;;;;;;;;5020673;28;20590;-68
2022/02/16 01:35:50;;;;;;;10.48;5.95;;;;;;;;;;5013091;28;20290;-68
2022/02/16 01:38:16;;;;;;;9.80;6.15;;;;;;;;;;5020695;28;20498;-67
2022/02/16 01:40:43;;;;;;;7.53;5.32;;;;;;;;;;5011580;28;20060;-68
2022/02/16 01:43:09;;;;;;;10.05;6.22;;;;;;;;;;5012161;28;20053;-68
2022/02/16 01:45:35;;;;;;;7.43;5.55;;;;;;;;;;5013787;28;20046;-67
2022/02/16 01:48:02;;;;;;;9.43;6.18;;;;;;;;;;5024833;28;20459;-68
2022/02/16 01:50:29;;;;;;;10.15;6.82;;;;;;;;;;5035987;28;20067;-68
2022/02/16 01:52:55;;;;;;;8.43;6.50;;;;;;;;;;5012705;28;20501;-68
2022/02/16 01:55:21;;;;;;;11.75;6.63;;;;;;;;;;5014851;28;20458;-68
2022/02/16 01:57:48;;;;;;;14.18;7.00;;;;;;;;;;5007104;28;20053;-67
2022/02/16 02:00:14;;;;;;;9.15;6.60;;;;;;;;;;5020886;28;20054;-67
2022/02/16 02:02:42;;;;;;;12.45;6.38;;;;;;;;;;5018451;28;20049;-67
2022/02/16 02:05:08;;;;;;;8.88;5.97;;;;;;;;;;5015554;28;20049;-67
2022/02/16 02:07:35;;;;;;;10.93;6.90;;;;;;;;;;5023824;28;20152;-68
2022/02/16 02:10:02;;;;;;;10.02;6.30;;;;;;;;;;5003604;28;20046;-67
2022/02/16 02:12:32;;;;;;;9.90;6.50;;;;;;;;;;5018952;28;20497;-67
2022/02/16 02:14:58;;;;;;;9.02;6.70;;;;;;;;;;5011580;28;20392;-68
2022/02/16 02:17:24;;;;;;;10.88;6.30;;;;;;;;;;5019966;28;20061;-68
2022/02/16 02:19:51;;;;;;;8.93;6.88;;;;;;;;;;5016572;28;20058;-67
2022/02/16 02:22:17;;;;;;;6.88;5.50;;;;;;;;;;4993678;28;20061;-67
2022/02/16 02:24:43;;;;;;;9.60;5.90;;;;;;;;;;5017083;28;20558;-67
2022/02/16 02:27:09;;;;;;;9.68;5.57;;;;;;;;;;5013986;28;20049;-67
2022/02/16 02:29:39;;;;;;;7.15;4.97;;;;;;;;;;5022495;28;20057;-67
2022/02/16 02:32:05;;;;;;;9.38;5.07;;;;;;;;;;5014598;28;20052;-67
2022/02/16 02:34:31;;;;;;;6.78;4.53;;;;;;;;;;5021979;28;20049;-67
2022/02/16 02:36:58;;;;;;;8.73;5.85;;;;;;;;;;5015625;28;20045;-67
2022/02/16 02:39:24;;;;;;;7.82;5.25;;;;;;;;;;5008074;28;20049;-67
2022/02/16 02:41:50;;;;;;;8.35;5.40;;;;;;;;;;5020241;28;20076;-67
2022/02/16 02:44:17;;;;;;;8.45;5.07;;;;;;;;;;5013400;28;20068;-67
2022/02/16 02:46:44;;;;;;;7.72;5.13;;;;;;;;;;5019788;28;20486;-67
2022/02/16 02:49:10;;;;;;;8.10;4.78;;;;;;;;;;5026568;28;20434;-67
2022/02/16 02:51:36;;;;;;;5.88;4.80;;;;;;;;;;5034467;28;20129;-67
2022/02/16 02:54:02;;;;;;;9.55;4.85;;;;;;;;;;5020062;28;20056;-68
2022/02/16 02:56:29;;;;;;;8.32;4.88;;;;;;;;;;5010671;28;20490;-67
2022/02/16 02:58:55;;;;;;;6.55;5.10;;;;;;;;;;5020460;28;20084;-67
2022/02/16 03:01:21;;;;;;;8.65;5.30;;;;;;;;;;5011937;28;20056;-67
2022/02/16 03:03:48;;;;;;;6.53;4.90;;;;;;;;;;5016277;28;20049;-67
2022/02/16 03:06:14;;;;;;;8.63;5.22;;;;;;;;;;5008752;28;20536;-67
2022/02/16 03:08:40;;;;;;;7.60;5.68;;;;;;;;;;5019512;28;20437;-67
2022/02/16 03:11:07;;;;;;;11.27;5.45;;;;;;;;;;5020643;28;20455;-67
2022/02/16 03:13:33;;;;;;;7.00;4.97;;;;;;;;;;5013993;28;20060;-67
2022/02/16 03:15:59;;;;;;;7.50;5.20;;;;;;;;;;5020584;28;20053;-67
2022/02/16 03:18:27;;;;;;;6.95;4.35;;;;;;;;;;5008628;28;20049;-67
2022/02/16 03:20:53;;;;;;;7.45;4.60;;;;;;;;;;5014385;28;20517;-67
2022/02/16 03:23:20;;;;;;;6.53;5.10;;;;;;;;;;5013380;28;20056;-67
2022/02/16 03:25:46;;;;;;;7.75;4.95;;;;;;;;;;5022553;28;20049;-68
2022/02/16 03:28:12;;;;;;;10.35;5.53;;;;;;;;;;5024310;28;20049;-67
2022/02/16 03:30:39;;;;;;;8.38;4.60;;;;;;;;;;5014626;28;20061;-66
2022/02/16 03:33:25;;;;;;;9.20;4.45;;;;;;;;;;5018381;28;20053;-67
2022/02/16 03:35:51;;;;;;;9.45;5.00;;;;;;;;;;5015107;28;20057;-67
2022/02/16 03:38:18;;;;;;;6.53;4.03;;;;;;;;;;5024050;28;20518;-67
2022/02/16 03:40:44;;;;;;;8.00;4.40;;;;;;;;;;5016194;28;21047;-67
2022/02/16 03:43:10;;;;;;;7.28;4.50;;;;;;;;;;5023734;28;20072;-68
2022/02/16 03:45:37;;;;;;;5.53;3.65;;;;;;;;;;5021058;28;20045;-67
2022/02/16 03:48:03;;;;;;;5.38;3.88;;;;;;;;;;5009807;28;20650;-68
2022/02/16 03:50:29;;;;;;;6.70;3.90;;;;;;;;;;5037580;28;20362;-67
2022/02/16 03:52:56;;;;;;;5.90;3.60;;;;;;;;;;5028097;28;20057;-67
2022/02/16 03:55:22;;;;;;;5.35;2.97;;;;;;;;;;5022457;28;20065;-67
2022/02/16 03:57:48;;;;;;;8.63;4.18;;;;;;;;;;5016835;28;20045;-67
2022/02/16 04:00:15;;;;;;;7.78;3.50;;;;;;;;;;5016202;28;20064;-67
2022/02/16 04:02:41;;;;;;;5.95;3.60;;;;;;;;;;5021749;28;20415;-67
2022/02/16 04:05:08;;;;;;;6.00;3.60;;;;;;;;;;5013704;28;20426;-67
2022/02/16 04:07:35;;;;;;;4.40;2.75;;;;;;;;;;5015996;28;20061;-67
2022/02/16 04:10:04;;;;;;;5.40;3.38;;;;;;;;;;5015684;28;20123;-67
2022/02/16 04:12:32;;;;;;;5.35;3.42;;;;;;;;;;5018136;28;20084;-67
2022/02/16 04:14:58;;;;;;;5.43;3.47;;;;;;;;;;5011940;28;20517;-67
2022/02/16 04:17:25;;;;;;;5.72;3.40;;;;;;;;;;5023644;28;20057;-67
2022/02/16 04:19:51;;;;;;;7.45;3.97;;;;;;;;;;5023786;28;20056;-67
2022/02/16 04:22:18;;;;;;;7.13;3.40;;;;;;;;;;5014945;28;20049;-67
2022/02/16 04:24:44;;;;;;;5.03;3.50;;;;;;;;;;5023103;28;20084;-67
2022/02/16 04:27:11;;;;;;;7.28;3.90;;;;;;;;;;5010024;28;20056;-67
2022/02/16 04:29:37;;;;;;;8.55;3.72;;;;;;;;;;5018895;28;20053;-67
2022/02/16 04:32:04;;;;;;;4.93;3.38;;;;;;;;;;5022446;28;20433;-67
2022/02/16 04:34:32;;;;;;;4.72;3.45;;;;;;;;;;5016328;28;20046;-67
2022/02/16 04:36:58;;;;;;;6.60;4.07;;;;;;;;;;5021081;28;20056;-67
2022/02/16 04:39:24;;;;;;;6.53;3.85;;;;;;;;;;5013576;28;20056;-67
2022/02/16 04:41:51;;;;;;;5.85;4.13;;;;;;;;;;5015055;28;20526;-67
2022/02/16 04:44:17;;;;;;;5.57;3.83;;;;;;;;;;5013495;28;20459;-67
2022/02/16 04:46:44;;;;;;;5.25;3.05;;;;;;;;;;5022411;28;20132;-68
2022/02/16 04:49:10;;;;;;;6.50;3.92;;;;;;;;;;5021129;28;20069;-68
2022/02/16 04:51:36;;;;;;;5.63;3.70;;;;;;;;;;5014447;28;20128;-67
2022/02/16 04:54:03;;;;;;;4.85;3.95;;;;;;;;;;5016273;28;20053;-67
2022/02/16 04:56:29;;;;;;;7.55;3.67;;;;;;;;;;5007661;28;20054;-67
2022/02/16 04:58:55;;;;;;;4.60;3.42;;;;;;;;;;5021955;28;20053;-67
2022/02/16 05:01:22;;;;;;;4.85;3.17;;;;;;;;;;5013981;28;20056;-67
2022/02/16 05:03:48;;;;;;;5.40;3.58;;;;;;;;;;5021707;28;20403;-67
2022/02/16 05:06:14;;;;;;;4.28;3.60;;;;;;;;;;5022101;28;20064;-67
2022/02/16 05:08:41;;;;;;;4.97;3.15;;;;;;;;;;5009947;28;20045;-67
2022/02/16 05:11:07;;;;;;;4.25;3.58;;;;;;;;;;5017192;28;20427;-67
2022/02/16 05:13:33;;;;;;;4.80;3.65;;;;;;;;;;5013951;28;20053;-67
2022/02/16 05:15:59;;;;;;;5.18;4.13;;;;;;;;;;5022066;28;20066;-67
2022/02/16 05:18:26;;;;;;;6.00;4.65;;;;;;;;;;5013701;28;20535;-67
2022/02/16 05:20:52;;;;;;;6.25;4.20;;;;;;;;;;5022037;28;20056;-67
2022/02/16 05:23:19;;;;;;;5.32;4.38;;;;;;;;;;5016669;28;20072;-67
2022/02/16 05:25:45;;;;;;;6.07;5.05;;;;;;;;;;5008343;28;20053;-67
2022/02/16 05:28:12;;;;;;;4.93;3.35;;;;;;;;;;5022669;28;20592;-67
2022/02/16 05:30:38;;;;;;;3.33;3.00;;;;;;;;;;5014320;28;20049;-67
2022/02/16 05:33:04;;;;;;;5.57;3.70;;;;;;;;;;5022235;28;20056;-67
2022/02/16 05:35:30;;;;;;;4.50;3.97;;;;;;;;;;5014033;28;20050;-67
2022/02/16 05:37:57;;;;;;;6.75;4.50;;;;;;;;;;5014631;28;20248;-67
2022/02/16 05:40:23;;;;;;;5.13;4.10;;;;;;;;;;5021379;28;20434;-67
2022/02/16 05:42:53;;;;;;;;;;;;;;;;;;5013022;28;20057;-67
2022/02/16 05:45:20;;;;;;;4.82;3.95;;;;;;;;;;5021875;28;19925;-67
2022/02/16 05:47:46;;;;;;;5.90;4.20;;;;;;;;;;5012707;28;20065;-67
2022/02/16 05:50:13;;;;;;;4.22;3.78;;;;;;;;;;5016682;28;20049;-68
2022/02/16 05:52:39;;;;;;;4.63;3.55;;;;;;;;;;5009533;28;20087;-67
2022/02/16 05:55:06;;;;;;;4.50;3.50;;;;;;;;;;5019137;28;20053;-68
2022/02/16 05:57:32;;;;;;;3.97;2.55;;;;;;;;;;5021626;28;20053;-67
2022/02/16 05:59:59;;;;;;;4.57;3.67;;;;;;;;;;5013287;28;20056;-68
2022/02/16 06:02:25;;;;;;;4.13;3.38;;;;;;;;;;5013590;28;20147;-67
2022/02/16 06:04:52;;;;;;;3.67;3.20;;;;;;;;;;5008011;28;20053;-67
2022/02/16 06:07:18;;;;;;;4.57;3.67;;;;;;;;;;5021357;28;20774;-67
2022/02/16 06:09:44;;;;;;;2.80;2.50;;;;;;;;;;5041708;28;20087;-67
2022/02/16 06:12:11;;;;;;;3.10;2.80;;;;;;;;;;5003441;28;20643;-67
2022/02/16 06:14:37;;;;;;;3.55;3.25;;;;;;;;;;5018372;28;20433;-67
2022/02/16 06:17:03;;;;;;;5.95;2.97;;;;;;;;;;5013653;28;20049;-68
2022/02/16 06:19:30;;;;;;;4.22;3.45;;;;;;;;;;5014381;28;20496;-67
2022/02/16 06:21:56;;;;;;;4.10;3.35;;;;;;;;;;5011534;28;20052;-67
2022/02/16 06:24:22;;;;;;;4.75;3.40;;;;;;;;;;5019599;28;20076;-67
2022/02/16 06:26:49;;;;;;;3.40;2.75;;;;;;;;;;5019981;28;20045;-67
2022/02/16 06:29:15;;;;;;;3.65;2.78;;;;;;;;;;5012454;28;20073;-67
2022/02/16 06:31:41;;;;;;;2.53;2.20;;;;;;;;;;5007319;28;20061;-67
2022/02/16 06:34:08;;;;;;;2.42;2.20;;;;;;;;;;4992466;28;20445;-67
2022/02/16 06:36:34;;;;;;;2.80;2.47;;;;;;;;;;5000552;28;20065;-67
2022/02/16 06:39:01;;;;;;;3.20;2.58;;;;;;;;;;4992373;28;20045;-67
2022/02/16 06:41:28;;;;;;;2.70;2.50;;;;;;;;;;5007850;28;20065;-67
2022/02/16 06:43:54;;;;;;;2.65;2.45;;;;;;;;;;5021545;28;20065;-67
2022/02/16 06:46:21;;;;;;;2.42;2.22;;;;;;;;;;5010374;28;20045;-67
2022/02/16 06:48:47;;;;;;;3.13;2.60;;;;;;;;;;5016257;28;20061;-66
2022/02/16 06:51:17;;;;;;;3.33;2.53;;;;;;;;;;5008236;28;20134;-67
2022/02/16 06:53:44;;;;;;;5.00;2.67;;;;;;;;;;5007278;28;20045;-67
2022/02/16 06:56:10;;;;;;;3.67;2.20;;;;;;;;;;4993936;28;20046;-67
2022/02/16 06:58:36;;;;;;;2.65;2.45;;;;;;;;;;5006294;28;20048;-67
2022/02/16 07:01:03;;;;;;;2.72;2.15;;;;;;;;;;5003485;28;20045;-67
2022/02/16 07:03:29;;;;;;;6.13;2.70;;;;;;;;;;5019734;28;20056;-67
2022/02/16 07:05:55;;;;;;;2.60;2.38;;;;;;;;;;5020006;28;20053;-67
2022/02/16 07:08:22;;;;;;;2.15;1.98;;;;;;;;;;5015123;28;20514;-67
2022/02/16 07:10:48;;;;;;;3.22;2.30;;;;;;;;;;5026649;28;20057;-67
2022/02/16 07:13:14;;;;;;;2.65;2.45;;;;;;;;;;5017354;28;20061;-67
2022/02/16 07:15:41;;;;;;;3.53;2.15;;;;;;;;;;5020103;28;20037;-67
2022/02/16 07:18:07;;;;;;;2.00;1.75;;;;;;;;;;5026116;28;20041;-67
2022/02/16 07:20:33;;;;;;;7.78;2.30;;;;;;;;;;5018199;28;20053;-67
2022/02/16 07:23:00;;;;;;;1.77;1.60;;;;;;;;;;5021410;28;20045;-67
2022/02/16 07:25:27;;;;;;;2.22;1.88;;;;;;;;;;5011524;28;20056;-67
2022/02/16 07:28:13;;;;;;;2.67;1.73;;;;;;;;;;5024930;28;20055;-67
2022/02/16 07:30:39;;;;;;;2.53;2.22;;;;;;;;;;5015749;28;20049;-67
2022/02/16 07:33:06;;;;;;;3.03;2.00;;;;;;;;;;5024607;28;20065;-67
2022/02/16 07:35:32;;;;;;;2.17;1.90;;;;;;;;;;5014469;28;20045;-66
2022/02/16 07:37:58;;;;;;;2.88;2.22;;;;;;;;;;5014465;28;20045;-67
2022/02/16 07:40:26;;;;;;;3.03;2.00;;;;;;;;;;5024754;28;20049;-67
2022/02/16 07:42:52;;;;;;;3.42;1.45;;;;;;;;;;5035720;28;20486;-67
2022/02/16 07:45:20;;;;;;;1.73;1.42;;;;;;;;;;5044082;28;20057;-66
2022/02/16 07:47:46;;;;;;;1.85;1.60;;;;;;;;;;5028277;28;20053;-67
2022/02/16 07:50:13;;;;;;;2.50;1.60;;;;;;;;;;5020344;28;20053;-67
2022/02/16 07:52:39;;;;;;;3.65;1.90;;;;;;;;;;5005277;28;20903;-67
2022/02/16 07:55:06;;;;;;;2.83;1.75;;;;;;;;;;5022685;28;20103;-67
2022/02/16 07:57:33;;;;;;;2.97;1.95;;;;;;;;;;5015213;28;20455;-68
2022/02/16 07:59:59;;;;;;;2.35;1.60;;;;;;;;;;5012834;28;20050;-67
2022/02/16 08:02:26;;;;;;;2.63;1.60;;;;;;;;;;5023617;28;20046;-67
2022/02/16 08:04:52;;;;;;;3.67;2.03;;;;;;;;;;5010183;28;20068;-66
2022/02/16 08:07:18;;;;;;;4.55;1.80;;;;;;;;;;5018333;28;20053;-67
2022/02/16 08:09:45;;;;;;;2.50;1.85;;;;;;;;;;5015517;28;20050;-67
2022/02/16 08:12:12;;;;;;;3.00;1.88;;;;;;;;;;5022764;28;20426;-67
2022/02/16 08:14:39;;;;;;;4.10;2.00;;;;;;;;;;5023938;28;20050;-66
2022/02/16 08:17:05;;;;;;;3.67;1.77;;;;;;;;;;5016383;28;20438;-67
2022/02/16 08:19:32;;;;;;;2.22;1.73;;;;;;;;;;5017267;28;20053;-67
2022/02/16 08:21:59;;;;;;;3.45;2.35;;;;;;;;;;5018288;28;20048;-67
2022/02/16 08:24:27;;;;;;;2.72;2.10;;;;;;;;;;5032645;28;20049;-68
2022/02/16 08:26:54;;;;;;;3.33;2.28;;;;;;;;;;5020691;28;20041;-68
2022/02/16 08:29:22;;;;;;;2.95;1.92;;;;;;;;;;5021295;28;20071;-68
2022/02/16 08:31:54;;;;;;;3.65;2.10;;;;;;;;;;5015900;28;20662;-68
2022/02/16 08:34:20;;;;;;;3.53;2.40;;;;;;;;;;5010750;28;20560;-68
2022/02/16 08:36:47;;;;;;;2.85;2.03;;;;;;;;;;5021314;28;20045;-69
2022/02/16 08:39:13;;;;;;;3.15;2.33;;;;;;;;;;5015171;28;20053;-69
2022/02/16 08:41:39;;;;;;;3.83;2.38;;;;;;;;;;5022718;28;20524;-68
2022/02/16 08:44:06;;;;;;;3.85;2.67;;;;;;;;;;5017097;28;20052;-68
2022/02/16 08:46:33;;;;;;;3.42;2.60;;;;;;;;;;5013503;28;20081;-69
2022/02/16 08:49:01;;;;;;;4.28;2.63;;;;;;;;;;5030109;28;20700;-68
2022/02/16 08:51:29;;;;;;;5.05;3.20;;;;;;;;;;5014877;28;20052;-69
2022/02/16 08:53:55;;;;;;;4.93;3.10;;;;;;;;;;5023281;28;20049;-68
2022/02/16 08:56:22;;;;;;;6.55;3.47;;;;;;;;;;5011750;28;20329;-68
2022/02/16 08:58:48;;;;;;;5.50;3.53;;;;;;;;;;5022464;28;20239;-68
2022/02/16 09:01:14;;;;;;;6.60;3.65;;;;;;;;;;5015121;28;20272;-69
2022/02/16 09:03:42;;;;;;;5.13;3.80;;;;;;;;;;5007964;28;20566;-68
2022/02/16 09:06:08;;;;;;;6.97;3.35;;;;;;;;;;5023044;28;20059;-69
2022/02/16 09:08:34;;;;;;;6.35;3.60;;;;;;;;;;5015169;28;20049;-69
2022/02/16 09:11:00;;;;;;;5.22;3.83;;;;;;;;;;5022757;28;20049;-68
2022/02/16 09:13:27;;;;;;;6.30;3.88;;;;;;;;;;5011678;28;20055;-67
2022/02/16 09:15:53;;;;;;;7.20;4.10;;;;;;;;;;5021621;28;20050;-68
2022/02/16 09:18:20;;;;;;;5.50;3.95;;;;;;;;;;5022707;28;20450;-67
2022/02/16 09:20:47;;;;;;;5.95;3.88;;;;;;;;;;5013670;28;20049;-67
2022/02/16 09:23:14;;;;;;;5.97;4.15;;;;;;;;;;5022905;28;20073;-68
2022/02/16 09:25:41;;;;;;;6.72;3.75;;;;;;;;;;5014625;28;20053;-67
2022/02/16 09:28:07;;;;;;;6.63;3.70;;;;;;;;;;5017726;28;20415;-69
2022/02/16 09:30:33;;;;;;;5.97;4.28;;;;;;;;;;5009530;28;20056;-69
2022/02/16 09:33:00;;;;;;;5.47;3.63;;;;;;;;;;5021691;28;20045;-68
2022/02/16 09:35:26;;;;;;;6.47;4.28;;;;;;;;;;5023078;28;20139;-68
2022/02/16 09:37:53;;;;;;;5.95;4.00;;;;;;;;;;5013082;28;20046;-68
2022/02/16 09:40:19;;;;;;;5.90;4.40;;;;;;;;;;5002234;28;20058;-69
2022/02/16 09:42:45;;;;;;;5.25;3.95;;;;;;;;;;4986631;28;20041;-68
2022/02/16 09:45:13;;;;;;;7.63;4.47;;;;;;;;;;5004735;28;20061;-68
2022/02/16 09:47:44;;;;;;;4.65;3.30;;;;;;;;;;5011681;28;20054;-68
2022/02/16 09:50:11;;;;;;;4.65;3.05;;;;;;;;;;5001652;28;20062;-69
2022/02/16 09:52:38;;;;;;;5.88;4.60;;;;;;;;;;5009434;28;20297;-69
2022/02/16 09:55:05;;;;;;;6.13;4.53;;;;;;;;;;5011055;28;20477;-68
2022/02/16 09:57:31;;;;;;;8.63;5.15;;;;;;;;;;5018405;28;20490;-69
2022/02/16 10:00:00;;;;;;;7.45;4.75;;;;;;;;;;5015896;28;20099;-69
2022/02/16 10:02:34;;;;;;;7.38;4.95;;;;;;;;;;5022226;28;20056;-69
2022/02/16 10:05:02;;;;;;;7.53;4.80;;;;;;;;;;5013395;28;20277;-68
2022/02/16 10:07:30;;;;;;;11.90;4.93;;;;;;;;;;5027560;28;20053;-69
2022/02/16 10:10:09;;;;;;;5.28;4.32;;;;;;;;;;5016552;28;20455;-69
2022/02/16 10:12:35;;;;;;;;;;;;;;;;;;5011379;28;20084;-68
2022/02/16 10:15:02;;;;;;;8.07;4.03;;;;;;;;;;5023101;28;20047;-68
2022/02/16 10:17:29;;;;;;;6.65;3.90;;;;;;;;;;5015552;28;20060;-69
2022/02/16 10:19:57;;;;;;;6.88;4.20;;;;;;;;;;5021776;28;20435;-68
2022/02/16 10:22:25;;;;;;;9.40;4.50;;;;;;;;;;5012258;28;20053;-69
2022/02/16 10:24:51;;;;;;;7.68;4.03;;;;;;;;;;5015612;28;20470;-68
2022/02/16 10:27:18;;;;;;;6.03;3.85;;;;;;;;;;5020882;28;20050;-69
2022/02/16 10:29:45;;;;;;;7.65;4.18;;;;;;;;;;5012803;28;20053;-68
2022/02/16 10:32:29;;;;;;;6.90;3.75;;;;;;;;;;5021308;28;20049;-67
2022/02/16 10:34:57;;;;;;;8.32;4.00;;;;;;;;;;5012913;28;20475;-69
2022/02/16 10:37:37;;;;;;;8.45;4.00;;;;;;;;;;5016091;28;20053;-68
2022/02/16 10:40:10;;;;;;;7.88;3.55;;;;;;;;;;4991437;28;20116;-68
2022/02/16 10:42:51;;;;;;;9.18;4.13;;;;;;;;;;5002311;28;20053;-70
2022/02/16 10:45:21;;;;;;;7.28;3.60;;;;;;;;;;5007192;28;20076;-69
2022/02/16 10:47:54;;;;;;;7.63;4.00;;;;;;;;;;5005608;28;20137;-67
2022/02/16 10:50:22;;;;;;;10.15;3.90;;;;;;;;;;4996801;28;20165;-68
2022/02/16 10:52:49;;;;;;;6.15;3.85;;;;;;;;;;4991054;28;20379;-67
2022/02/16 10:55:16;;;;;;;10.30;4.43;;;;;;;;;;5006256;28;20063;-70
2022/02/16 10:57:43;;;;;;;10.07;4.57;;;;;;;;;;5010746;28;20060;-67
2022/02/16 11:00:09;;;;;;;10.00;3.95;;;;;;;;;;5020832;28;20057;-69
2022/02/16 11:02:36;;;;;;;10.05;4.47;;;;;;;;;;5010036;28;20068;-69
2022/02/16 11:05:03;;;;;;;10.13;4.30;;;;;;;;;;5035529;28;20049;-68
2022/02/16 11:07:32;;;;;;;8.15;4.13;;;;;;;;;;5023142;28;20468;-70
2022/02/16 11:10:00;;;;;;;11.90;4.25;;;;;;;;;;4994670;28;20057;-68
2022/02/16 11:12:27;;;;;;;8.32;4.10;;;;;;;;;;5016078;28;20053;-67
2022/02/16 11:14:53;;;;;;;10.40;3.83;;;;;;;;;;4996417;28;20050;-67
2022/02/16 11:17:24;;;;;;;9.30;3.95;;;;;;;;;;5006516;28;20162;-67
2022/02/16 11:19:50;;;;;;;11.32;4.50;;;;;;;;;;4988871;28;20049;-67
2022/02/16 11:22:18;;;;;;;8.43;3.17;;;;;;;;;;5007894;28;20050;-67
2022/02/16 11:24:46;;;;;;;10.18;3.45;;;;;;;;;;5000986;28;20502;-68
2022/02/16 11:27:22;;;;;;;8.23;3.30;;;;;;;;;;5000745;28;20054;-67
2022/02/16 11:29:49;;;;;;;7.75;3.20;;;;;;;;;;5009694;28;20361;-67
2022/02/16 11:32:17;;;;;;;9.48;3.25;;;;;;;;;;5007819;28;20057;-67
2022/02/16 11:34:44;;;;;;;8.35;2.95;;;;;;;;;;5016669;28;20057;-67
2022/02/16 11:37:10;;;;;;;13.00;3.10;;;;;;;;;;5015385;28;20042;-67
2022/02/16 11:39:49;;;;;;;6.38;2.85;;;;;;;;;;5021455;28;20112;-67
2022/02/16 11:42:20;;;;;;;7.78;3.08;;;;;;;;;;5020609;28;20053;-67
2022/02/16 11:44:50;;;;;;;8.55;2.53;;;;;;;;;;5014878;28;20060;-67
2022/02/16 11:47:39;;;;;;;11.80;3.00;;;;;;;;;;5020245;28;20056;-67
2022/02/16 11:50:14;;;;;;;8.02;2.58;;;;;;;;;;4995852;28;20392;-67
2022/02/16 11:52:41;;;;;;;7.63;2.33;;;;;;;;;;5011467;28;20060;-67
2022/02/16 11:55:20;;;;;;;10.90;2.50;;;;;;;;;;5015580;28;20049;-67
2022/02/16 11:57:48;;;;;;;7.65;3.00;;;;;;;;;;5023656;28;20060;-67
2022/02/16 12:00:20;;;;;;;8.68;3.17;;;;;;;;;;5014904;28;20045;-67
2022/02/16 12:02:56;;;;;;;8.77;3.58;;;;;;;;;;5010933;28;20045;-67
2022/02/16 12:05:42;;;;;;;11.80;3.90;;;;;;;;;;5019884;28;20049;-67
2022/02/16 12:08:21;;;;;;;7.60;3.92;;;;;;;;;;5020093;28;20053;-67
2022/02/16 12:10:49;;;;;;;9.65;4.70;;;;;;;;;;5021653;28;20422;-67
2022/02/16 12:13:22;;;;;;;7.10;4.38;;;;;;;;;;5007646;28;20065;-67
2022/02/16 12:15:53;;;;;;;9.48;4.47;;;;;;;;;;5010295;28;20807;-66
2022/02/16 12:18:20;;;;;;;11.40;4.53;;;;;;;;;;5004213;28;20061;-67
2022/02/16 12:20:47;;;;;;;9.27;4.50;;;;;;;;;;5024482;28;20843;-67
2022/02/16 12:23:14;;;;;;;8.05;4.25;;;;;;;;;;5018231;28;20053;-67
2022/02/16 12:25:40;;;;;;;13.88;5.10;;;;;;;;;;5022528;28;20546;-67
2022/02/16 12:28:06;;;;;;;16.75;5.97;;;;;;;;;;5017765;28;20075;-67
2022/02/16 12:30:38;;;;;;;12.35;4.93;;;;;;;;;;5002127;28;20099;-70
2022/02/16 12:33:25;;;;;;;13.13;5.00;;;;;;;;;;5020421;28;20065;-67
2022/02/16 12:35:51;;;;;;;13.85;4.70;;;;;;;;;;5013161;28;20208;-67
2022/02/16 12:38:22;;;;;;;14.15;4.45;;;;;;;;;;5012776;28;20049;-67
2022/02/16 12:40:48;;;;;;;13.02;4.55;;;;;;;;;;5001343;28;20060;-67
2022/02/16 12:43:15;;;;;;;13.60;5.07;;;;;;;;;;5009464;28;20045;-68
2022/02/16 12:45:42;;;;;;;13.95;4.53;;;;;;;;;;5006168;28;20470;-67
2022/02/16 12:48:12;;;;;;;16.05;4.90;;;;;;;;;;5023821;28;20055;-67
2022/02/16 12:50:39;;;;;;;12.93;4.97;;;;;;;;;;5019887;28;20046;-68
2022/02/16 12:53:07;;;;;;;14.90;5.13;;;;;;;;;;5014681;28;20058;-68
2022/02/16 12:55:41;;;;;;;9.35;4.95;;;;;;;;;;5019073;28;20053;-68
2022/02/16 12:58:08;;;;;;;12.75;5.20;;;;;;;;;;5001716;28;20425;-67
2022/02/16 13:00:46;;;;;;;10.40;4.65;;;;;;;;;;5019692;28;20050;-70
2022/02/16 13:03:17;;;;;;;12.30;5.15;;;;;;;;;;5002269;28;20050;-70
2022/02/16 13:05:44;;;;;;;16.63;5.47;;;;;;;;;;5005645;28;20049;-70
2022/02/16 13:08:12;;;;;;;17.00;5.20;;;;;;;;;;5009792;28;20053;-69
2022/02/16 13:10:38;;;;;;;12.52;4.97;;;;;;;;;;5011867;28;20763;-69
2022/02/16 13:13:17;;;;;;;14.52;4.57;;;;;;;;;;5018057;28;20049;-70
2022/02/16 13:15:45;;;;;;;13.18;5.75;;;;;;;;;;4994610;28;20060;-69
2022/02/16 13:18:14;;;;;;;20.42;5.32;;;;;;;;;;5016056;28;20049;-69
2022/02/16 13:20:42;;;;;;;18.98;5.03;;;;;;;;;;5013905;28;20053;-68
2022/02/16 13:23:13;;;;;;;16.40;5.15;;;;;;;;;;5017837;28;20080;-68
2022/02/16 13:25:41;;;;;;;11.30;4.28;;;;;;;;;;5008280;28;20076;-68
2022/02/16 13:28:11;;;;;;;14.07;4.68;;;;;;;;;;5012075;28;20080;-69
2022/02/16 13:30:38;;;;;;;14.02;4.10;;;;;;;;;;5022101;28;20059;-68
2022/02/16 13:33:15;;;;;;;16.52;4.68;;;;;;;;;;5012699;28;20060;-68
2022/02/16 13:36:01;;;;;;;13.75;4.13;;;;;;;;;;5020422;28;20092;-70
2022/02/16 13:38:28;;;;;;;16.27;4.70;;;;;;;;;;5002793;28;20391;-68
2022/02/16 13:41:09;;;;;;;23.33;5.05;;;;;;;;;;5016432;28;20283;-71
2022/02/16 13:43:59;;;;;;;15.65;4.75;;;;;;;;;;5006174;28;20084;-69
2022/02/16 13:46:47;;;;;;;16.40;3.97;;;;;;;;;;5021296;28;20546;-69
2022/02/16 13:49:16;;;;;;;12.30;4.30;;;;;;;;;;5010924;28;20049;-68
2022/02/16 13:51:42;;;;;;;;;;;;;;;;;;5020398;28;20050;-69
2022/02/16 13:54:17;;;;;;;18.67;4.28;;;;;;;;;;5014835;28;19936;-69
2022/02/16 13:56:48;;;;;;;16.60;3.70;;;;;;;;;;5012430;28;20052;-69
2022/02/16 13:59:14;;;;;;;15.48;3.53;;;;;;;;;;5018279;28;20049;-71
2022/02/16 14:01:41;;;;;;;11.55;4.03;;;;;;;;;;5011723;28;20060;-69
2022/02/16 14:04:08;;;;;;;17.08;2.97;;;;;;;;;;5019819;28;20537;-69
2022/02/16 14:06:35;;;;;;;19.15;3.50;;;;;;;;;;4996245;28;20273;-68
2022/02/16 14:09:03;;;;;;;15.32;4.13;;;;;;;;;;5008725;28;20052;-69
2022/02/16 14:11:30;;;;;;;34.47;5.47;;;;;;;;;;5016478;28;20156;-69
2022/02/16 14:13:56;;;;;;;18.10;3.85;;;;;;;;;;5013040;28;20569;-72
2022/02/16 14:19:54;;;;;;;17.83;3.75;;;;;;;;;;5011905;28;20470;-69
2022/02/16 14:22:21;;;;;;;20.20;3.92;;;;;;;;;;5015368;28;20053;-69
2022/02/16 14:24:47;;;;;;;17.25;3.83;;;;;;;;;;5011756;28;20069;-72
2022/02/16 14:27:13;;;;;;;22.65;3.95;;;;;;;;;;5023766;28;20045;-69
2022/02/16 14:29:46;;;;;;;22.83;4.32;;;;;;;;;;5011722;28;20418;-70
2022/02/16 14:32:13;;;;;;;20.45;3.90;;;;;;;;;;5018953;28;20056;-69
2022/02/16 14:34:39;;;;;;;20.98;3.55;;;;;;;;;;5006942;28;20056;-69
2022/02/16 14:40:49;;;;;;;19.98;3.75;;;;;;;;;;5001692;28;20223;-70
2022/02/16 14:43:16;;;;;;;;;;;;;;;;;;5011820;28;20058;-70
2022/02/16 14:45:42;;;;;;;26.17;5.60;;;;;;;;;;5028208;28;19976;-69
2022/02/16 14:48:10;;;;;;;22.42;4.28;;;;;;;;;;5009375;28;20045;-69
2022/02/16 14:50:36;;;;;;;27.17;4.78;;;;;;;;;;5018436;28;20049;-69